sensor_id;sensor_type;location;lat;lon;timestamp;temperature;humidity
15888;DHT22;56032;51.324;12.376;2023-02-26T00:02:04;0.00;99.90
15888;DHT22;56032;51.324;12.376;2023-02-26T00:04:55;0.00;99.90
15888;DHT22;56032;51.324;12.376;2023-02-26T00:07:43;0.00;99.90
15888;DHT22;56032;51.324;12.376;2023-02-26T00:13:24;-0.10;99.90
15888;DHT22;56032;51.324;12.376;2023-02-26T00:16:12;0.00;99.90
15888;DHT22;56032;51.324;12.376;2023-02-26T00:18:48;0.00;99.90
15888;DHT22;56032;51.324;12.376;2023-02-26T00:21:43;0.00;99.90
15888;DHT22;56032;51.324;12.376;2023-02-26T00:24:18;1.10;99.90
15888;DHT22;56032;51.324;12.376;2023-02-26T00:27:01;-0.10;99.90
15888;DHT22;56032;51.324;12.376;2023-02-26T00:29:58;0.00;99.90
15888;DHT22;56032;51.324;12.376;2023-02-26T00:32:39;-0.50;99.90
15888;DHT22;56032;51.324;12.376;2023-02-26T00:35:33;0.00;99.90
15888;DHT22;56032;51.324;12.376;2023-02-26T00:38:27;0.00;99.90
15888;DHT22;56032;51.324;12.376;2023-02-26T00:41:02;0.00;99.90
15888;DHT22;56032;51.324;12.376;2023-02-26T00:43:48;0.00;99.90
15888;DHT22;56032;51.324;12.376;2023-02-26T00:46:47;0.00;99.90
15888;DHT22;56032;51.324;12.376;2023-02-26T00:49:22;-0.10;99.90
15888;DHT22;56032;51.324;12.376;2023-02-26T00:52:35;0.00;99.90
15888;DHT22;56032;51.324;12.376;2023-02-26T00:58:12;-0.10;99.90
15888;DHT22;56032;51.324;12.376;2023-02-26T01:00:56;0.00;99.90
15888;DHT22;56032;51.324;12.376;2023-02-26T01:03:40;0.00;99.90
15888;DHT22;56032;51.324;12.376;2023-02-26T01:06:31;0.10;99.90
15888;DHT22;56032;51.324;12.376;2023-02-26T01:09:28;0.10;99.90
15888;DHT22;56032;51.324;12.376;2023-02-26T01:12:25;0.00;99.90
15888;DHT22;56032;51.324;12.376;2023-02-26T01:15:19;0.00;99.90
15888;DHT22;56032;51.324;12.376;2023-02-26T01:18:08;0.00;99.90
15888;DHT22;56032;51.324;12.376;2023-02-26T01:20:55;0.00;99.90
15888;DHT22;56032;51.324;12.376;2023-02-26T01:23:42;0.00;99.90
15888;DHT22;56032;51.324;12.376;2023-02-26T01:26:51;0.00;99.90
15888;DHT22;56032;51.324;12.376;2023-02-26T01:29:25;0.00;99.90
15888;DHT22;56032;51.324;12.376;2023-02-26T01:32:00;0.00;99.90
15888;DHT22;56032;51.324;12.376;2023-02-26T01:35:12;0.00;99.90
15888;DHT22;56032;51.324;12.376;2023-02-26T01:43:54;-0.10;99.90
15888;DHT22;56032;51.324;12.376;2023-02-26T01:46:38;-0.20;99.90
15888;DHT22;56032;51.324;12.376;2023-02-26T01:49:35;-0.20;99.90
15888;DHT22;56032;51.324;12.376;2023-02-26T01:55:34;-0.30;99.90
15888;DHT22;56032;51.324;12.376;2023-02-26T01:58:23;-0.30;99.90
15888;DHT22;56032;51.324;12.376;2023-02-26T02:01:04;-0.30;99.90
15888;DHT22;56032;51.324;12.376;2023-02-26T02:03:46;-0.20;99.90
15888;DHT22;56032;51.324;12.376;2023-02-26T02:06:35;-0.20;99.90
15888;DHT22;56032;51.324;12.376;2023-02-26T02:09:22;-0.20;99.90
15888;DHT22;56032;51.324;12.376;2023-02-26T02:12:24;-0.30;99.90
15888;DHT22;56032;51.324;12.376;2023-02-26T02:15:19;-0.30;99.90
15888;DHT22;56032;51.324;12.376;2023-02-26T02:18:15;-0.20;99.90
15888;DHT22;56032;51.324;12.376;2023-02-26T02:20:58;-0.20;99.90
15888;DHT22;56032;51.324;12.376;2023-02-26T02:23:50;-0.30;99.90
15888;DHT22;56032;51.324;12.376;2023-02-26T02:32:26;-0.30;99.90
15888;DHT22;56032;51.324;12.376;2023-02-26T02:35:15;-0.20;99.90
15888;DHT22;56032;51.324;12.376;2023-02-26T02:38:19;-0.20;99.90
15888;DHT22;56032;51.324;12.376;2023-02-26T02:40:51;-0.20;99.90
15888;DHT22;56032;51.324;12.376;2023-02-26T02:43:22;-0.20;99.90
15888;DHT22;56032;51.324;12.376;2023-02-26T02:45:55;-0.20;99.90
15888;DHT22;56032;51.324;12.376;2023-02-26T02:48:28;-0.20;99.90
15888;DHT22;56032;51.324;12.376;2023-02-26T02:51:00;-0.30;99.90
15888;DHT22;56032;51.324;12.376;2023-02-26T02:53:32;-0.20;99.90
15888;DHT22;56032;51.324;12.376;2023-02-26T02:56:03;-0.20;99.90
15888;DHT22;56032;51.324;12.376;2023-02-26T02:58:36;-0.40;99.90
15888;DHT22;56032;51.324;12.376;2023-02-26T03:01:08;-0.30;99.90
15888;DHT22;56032;51.324;12.376;2023-02-26T03:03:42;-0.20;99.90
15888;DHT22;56032;51.324;12.376;2023-02-26T03:06:12;-0.30;99.90
15888;DHT22;56032;51.324;12.376;2023-02-26T03:08:43;-0.30;99.90
15888;DHT22;56032;51.324;12.376;2023-02-26T03:11:23;-0.40;99.90
15888;DHT22;56032;51.324;12.376;2023-02-26T03:14:10;-0.40;99.90
15888;DHT22;56032;51.324;12.376;2023-02-26T03:16:59;-0.40;99.90
15888;DHT22;56032;51.324;12.376;2023-02-26T03:19:48;-0.40;99.90
15888;DHT22;56032;51.324;12.376;2023-02-26T03:22:31;-0.30;99.90
15888;DHT22;56032;51.324;12.376;2023-02-26T03:25:26;-0.40;99.90
15888;DHT22;56032;51.324;12.376;2023-02-26T03:28:08;-0.40;99.90
15888;DHT22;56032;51.324;12.376;2023-02-26T03:30:57;-0.40;99.90
15888;DHT22;56032;51.324;12.376;2023-02-26T03:33:41;-0.40;99.90
15888;DHT22;56032;51.324;12.376;2023-02-26T03:36:37;-0.40;99.90
15888;DHT22;56032;51.324;12.376;2023-02-26T03:39:26;-0.40;99.90
15888;DHT22;56032;51.324;12.376;2023-02-26T03:45:18;-0.40;99.90
15888;DHT22;56032;51.324;12.376;2023-02-26T03:48:10;-0.40;99.90
15888;DHT22;56032;51.324;12.376;2023-02-26T03:51:02;-0.70;99.90
15888;DHT22;56032;51.324;12.376;2023-02-26T03:53:51;-0.40;99.90
15888;DHT22;56032;51.324;12.376;2023-02-26T03:56:38;-0.40;99.90
15888;DHT22;56032;51.324;12.376;2023-02-26T03:59:14;-0.30;99.90
15888;DHT22;56032;51.324;12.376;2023-02-26T04:01:57;-0.40;99.90
15888;DHT22;56032;51.324;12.376;2023-02-26T04:04:37;-0.40;99.90
15888;DHT22;56032;51.324;12.376;2023-02-26T04:07:20;-0.40;99.90
15888;DHT22;56032;51.324;12.376;2023-02-26T04:09:56;-0.40;99.90
15888;DHT22;56032;51.324;12.376;2023-02-26T04:12:29;-0.40;99.90
15888;DHT22;56032;51.324;12.376;2023-02-26T04:15:06;-0.40;99.90
15888;DHT22;56032;51.324;12.376;2023-02-26T04:17:56;-0.40;99.90
15888;DHT22;56032;51.324;12.376;2023-02-26T04:20:46;-0.30;99.90
15888;DHT22;56032;51.324;12.376;2023-02-26T04:23:39;-0.30;99.90
15888;DHT22;56032;51.324;12.376;2023-02-26T04:26:14;-0.30;99.90
15888;DHT22;56032;51.324;12.376;2023-02-26T04:28:57;-0.30;99.90
15888;DHT22;56032;51.324;12.376;2023-02-26T04:31:37;-0.30;99.90
15888;DHT22;56032;51.324;12.376;2023-02-26T04:37:29;-0.40;99.90
15888;DHT22;56032;51.324;12.376;2023-02-26T04:40:14;-0.40;99.90
15888;DHT22;56032;51.324;12.376;2023-02-26T04:43:12;-0.30;99.90
15888;DHT22;56032;51.324;12.376;2023-02-26T04:46:11;-0.30;99.90
15888;DHT22;56032;51.324;12.376;2023-02-26T04:48:55;-0.30;99.90
15888;DHT22;56032;51.324;12.376;2023-02-26T04:51:45;-0.30;99.90
15888;DHT22;56032;51.324;12.376;2023-02-26T04:54:35;-0.30;99.90
15888;DHT22;56032;51.324;12.376;2023-02-26T04:57:13;-0.30;99.90
15888;DHT22;56032;51.324;12.376;2023-02-26T05:00:28;-0.30;99.90
15888;DHT22;56032;51.324;12.376;2023-02-26T05:03:35;-0.40;99.90
15888;DHT22;56032;51.324;12.376;2023-02-26T05:06:23;-0.30;99.90
15888;DHT22;56032;51.324;12.376;2023-02-26T05:09:21;-0.30;99.90
15888;DHT22;56032;51.324;12.376;2023-02-26T05:17:57;-0.30;99.90
15888;DHT22;56032;51.324;12.376;2023-02-26T05:20:39;-0.30;99.90
15888;DHT22;56032;51.324;12.376;2023-02-26T05:23:17;-0.30;99.90
15888;DHT22;56032;51.324;12.376;2023-02-26T05:25:49;-0.30;99.90
15888;DHT22;56032;51.324;12.376;2023-02-26T05:28:36;-0.30;99.90
15888;DHT22;56032;51.324;12.376;2023-02-26T05:31:06;-0.40;99.90
15888;DHT22;56032;51.324;12.376;2023-02-26T05:33:57;-0.40;99.90
15888;DHT22;56032;51.324;12.376;2023-02-26T05:36:34;-0.40;99.90
15888;DHT22;56032;51.324;12.376;2023-02-26T05:39:14;-0.40;99.90
15888;DHT22;56032;51.324;12.376;2023-02-26T05:41:59;-0.40;99.90
15888;DHT22;56032;51.324;12.376;2023-02-26T05:44:51;-0.50;99.90
15888;DHT22;56032;51.324;12.376;2023-02-26T05:47:43;-0.40;99.90
15888;DHT22;56032;51.324;12.376;2023-02-26T05:50:27;-0.40;99.90
15888;DHT22;56032;51.324;12.376;2023-02-26T05:53:17;-0.40;99.90
15888;DHT22;56032;51.324;12.376;2023-02-26T05:55:55;-0.40;99.90
15888;DHT22;56032;51.324;12.376;2023-02-26T05:58:38;-0.40;99.90
15888;DHT22;56032;51.324;12.376;2023-02-26T06:01:22;-0.40;99.90
15888;DHT22;56032;51.324;12.376;2023-02-26T06:04:02;-0.30;99.90
15888;DHT22;56032;51.324;12.376;2023-02-26T06:09:55;-0.30;99.90
15888;DHT22;56032;51.324;12.376;2023-02-26T06:12:31;-0.40;99.90
15888;DHT22;56032;51.324;12.376;2023-02-26T06:15:19;-0.30;99.90
15888;DHT22;56032;51.324;12.376;2023-02-26T06:17:54;-0.30;99.90
15888;DHT22;56032;51.324;12.376;2023-02-26T06:20:47;-0.20;99.90
15888;DHT22;56032;51.324;12.376;2023-02-26T06:23:34;-0.20;99.90
15888;DHT22;56032;51.324;12.376;2023-02-26T06:26:33;-0.30;99.90
15888;DHT22;56032;51.324;12.376;2023-02-26T06:29:19;-0.20;99.90
15888;DHT22;56032;51.324;12.376;2023-02-26T06:32:11;-0.20;99.90
15888;DHT22;56032;51.324;12.376;2023-02-26T06:34:57;-0.20;99.90
15888;DHT22;56032;51.324;12.376;2023-02-26T06:37:47;-0.20;99.90
15888;DHT22;56032;51.324;12.376;2023-02-26T06:40:22;-0.10;99.90
15888;DHT22;56032;51.324;12.376;2023-02-26T06:46:44;-0.10;99.90
15888;DHT22;56032;51.324;12.376;2023-02-26T06:49:45;-0.10;99.90
15888;DHT22;56032;51.324;12.376;2023-02-26T06:52:21;-0.20;99.90
15888;DHT22;56032;51.324;12.376;2023-02-26T06:55:07;-0.10;99.90
15888;DHT22;56032;51.324;12.376;2023-02-26T06:57:46;-0.10;99.90
15888;DHT22;56032;51.324;12.376;2023-02-26T07:04:06;0.00;99.90
15888;DHT22;56032;51.324;12.376;2023-02-26T07:06:58;0.10;99.90
15888;DHT22;56032;51.324;12.376;2023-02-26T07:12:37;0.10;99.90
15888;DHT22;56032;51.324;12.376;2023-02-26T07:15:14;0.10;99.90
15888;DHT22;56032;51.324;12.376;2023-02-26T07:17:58;0.10;99.90
15888;DHT22;56032;51.324;12.376;2023-02-26T07:24:05;0.20;99.90
15888;DHT22;56032;51.324;12.376;2023-02-26T07:27:04;0.30;99.90
15888;DHT22;56032;51.324;12.376;2023-02-26T07:30:06;0.30;99.90
15888;DHT22;56032;51.324;12.376;2023-02-26T07:32:45;0.40;99.90
15888;DHT22;56032;51.324;12.376;2023-02-26T07:35:30;0.30;99.90
15888;DHT22;56032;51.324;12.376;2023-02-26T07:38:05;0.40;99.90
15888;DHT22;56032;51.324;12.376;2023-02-26T07:40:49;0.40;99.90
15888;DHT22;56032;51.324;12.376;2023-02-26T07:43:29;0.40;99.90
15888;DHT22;56032;51.324;12.376;2023-02-26T07:46:27;0.40;99.90
15888;DHT22;56032;51.324;12.376;2023-02-26T07:49:08;0.60;99.90
15888;DHT22;56032;51.324;12.376;2023-02-26T07:51:41;0.50;99.90
15888;DHT22;56032;51.324;12.376;2023-02-26T07:54:24;0.60;99.90
15888;DHT22;56032;51.324;12.376;2023-02-26T07:57:20;0.60;99.90
15888;DHT22;56032;51.324;12.376;2023-02-26T08:00:02;0.60;99.90
15888;DHT22;56032;51.324;12.376;2023-02-26T08:02:41;0.60;99.90
15888;DHT22;56032;51.324;12.376;2023-02-26T08:05:17;0.60;99.90
15888;DHT22;56032;51.324;12.376;2023-02-26T08:08:16;0.70;99.90
15888;DHT22;56032;51.324;12.376;2023-02-26T08:11:20;0.70;99.90
15888;DHT22;56032;51.324;12.376;2023-02-26T08:14:05;0.60;99.90
15888;DHT22;56032;51.324;12.376;2023-02-26T08:16:47;0.70;99.90
15888;DHT22;56032;51.324;12.376;2023-02-26T08:19:56;0.80;99.90
15888;DHT22;56032;51.324;12.376;2023-02-26T08:22:52;0.80;99.90
15888;DHT22;56032;51.324;12.376;2023-02-26T08:25:30;0.80;99.90
15888;DHT22;56032;51.324;12.376;2023-02-26T08:28:10;0.80;99.90
15888;DHT22;56032;51.324;12.376;2023-02-26T08:30:54;0.80;99.90
15888;DHT22;56032;51.324;12.376;2023-02-26T08:33:40;0.80;99.90
15888;DHT22;56032;51.324;12.376;2023-02-26T08:36:30;0.90;99.90
15888;DHT22;56032;51.324;12.376;2023-02-26T08:39:19;0.90;99.90
15888;DHT22;56032;51.324;12.376;2023-02-26T08:41:57;0.90;99.90
15888;DHT22;56032;51.324;12.376;2023-02-26T08:44:38;0.90;99.90
15888;DHT22;56032;51.324;12.376;2023-02-26T08:47:29;0.90;99.90
15888;DHT22;56032;51.324;12.376;2023-02-26T08:50:23;1.00;99.90
15888;DHT22;56032;51.324;12.376;2023-02-26T08:53:20;1.00;99.90
15888;DHT22;56032;51.324;12.376;2023-02-26T08:56:07;1.00;99.90
15888;DHT22;56032;51.324;12.376;2023-02-26T08:59:05;1.00;99.90
15888;DHT22;56032;51.324;12.376;2023-02-26T09:01:47;0.90;99.90
15888;DHT22;56032;51.324;12.376;2023-02-26T09:07:22;0.90;99.90
15888;DHT22;56032;51.324;12.376;2023-02-26T09:09:56;0.90;99.90
15888;DHT22;56032;51.324;12.376;2023-02-26T09:12:30;1.00;99.90
15888;DHT22;56032;51.324;12.376;2023-02-26T09:15:05;1.00;99.90
15888;DHT22;56032;51.324;12.376;2023-02-26T09:21:29;1.10;99.90
15888;DHT22;56032;51.324;12.376;2023-02-26T09:24:11;1.10;99.90
15888;DHT22;56032;51.324;12.376;2023-02-26T09:26:43;1.20;99.90
15888;DHT22;56032;51.324;12.376;2023-02-26T09:29:30;1.20;99.90
15888;DHT22;56032;51.324;12.376;2023-02-26T09:32:13;1.30;99.90
15888;DHT22;56032;51.324;12.376;2023-02-26T09:35:08;1.40;99.90
15888;DHT22;56032;51.324;12.376;2023-02-26T09:37:47;1.50;99.90
15888;DHT22;56032;51.324;12.376;2023-02-26T09:40:45;1.50;99.90
15888;DHT22;56032;51.324;12.376;2023-02-26T09:43:39;1.50;99.90
15888;DHT22;56032;51.324;12.376;2023-02-26T09:46:57;1.60;99.90
15888;DHT22;56032;51.324;12.376;2023-02-26T09:49:40;1.60;99.90
15888;DHT22;56032;51.324;12.376;2023-02-26T09:52:29;1.70;99.90
15888;DHT22;56032;51.324;12.376;2023-02-26T09:55:05;1.70;99.90
15888;DHT22;56032;51.324;12.376;2023-02-26T09:58:01;1.60;99.90
15888;DHT22;56032;51.324;12.376;2023-02-26T10:00:35;1.60;99.90
15888;DHT22;56032;51.324;12.376;2023-02-26T10:03:25;1.70;99.90
15888;DHT22;56032;51.324;12.376;2023-02-26T10:06:16;1.80;99.90
15888;DHT22;56032;51.324;12.376;2023-02-26T10:09:11;1.80;99.90
15888;DHT22;56032;51.324;12.376;2023-02-26T10:11:55;1.90;99.90
15888;DHT22;56032;51.324;12.376;2023-02-26T10:15:12;2.10;99.90
15888;DHT22;56032;51.324;12.376;2023-02-26T10:17:58;2.20;99.90
15888;DHT22;56032;51.324;12.376;2023-02-26T10:20:53;2.20;99.90
15888;DHT22;56032;51.324;12.376;2023-02-26T10:24:06;2.30;99.90
15888;DHT22;56032;51.324;12.376;2023-02-26T10:26:54;2.20;99.90
15888;DHT22;56032;51.324;12.376;2023-02-26T10:29:43;2.20;99.90
15888;DHT22;56032;51.324;12.376;2023-02-26T10:32:23;2.30;99.90
15888;DHT22;56032;51.324;12.376;2023-02-26T10:35:11;2.20;99.90
15888;DHT22;56032;51.324;12.376;2023-02-26T10:38:10;2.20;99.90
15888;DHT22;56032;51.324;12.376;2023-02-26T10:40:49;2.20;99.90
15888;DHT22;56032;51.324;12.376;2023-02-26T10:43:38;2.20;99.90
15888;DHT22;56032;51.324;12.376;2023-02-26T10:46:17;2.20;99.90
15888;DHT22;56032;51.324;12.376;2023-02-26T10:52:12;2.40;99.90
15888;DHT22;56032;51.324;12.376;2023-02-26T10:54:45;2.60;99.90
15888;DHT22;56032;51.324;12.376;2023-02-26T10:57:17;2.80;99.90
15888;DHT22;56032;51.324;12.376;2023-02-26T10:59:54;2.80;99.90
15888;DHT22;56032;51.324;12.376;2023-02-26T11:02:40;2.90;99.90
15888;DHT22;56032;51.324;12.376;2023-02-26T11:05:15;2.90;99.90
15888;DHT22;56032;51.324;12.376;2023-02-26T11:07:47;3.10;99.90
15888;DHT22;56032;51.324;12.376;2023-02-26T11:10:18;3.00;99.90
15888;DHT22;56032;51.324;12.376;2023-02-26T11:12:47;3.30;99.90
15888;DHT22;56032;51.324;12.376;2023-02-26T11:15:17;3.40;99.90
15888;DHT22;56032;51.324;12.376;2023-02-26T11:17:47;3.60;99.90
15888;DHT22;56032;51.324;12.376;2023-02-26T11:20:18;3.60;99.90
15888;DHT22;56032;51.324;12.376;2023-02-26T11:22:54;3.50;99.90
15888;DHT22;56032;51.324;12.376;2023-02-26T11:25:36;3.40;99.90
15888;DHT22;56032;51.324;12.376;2023-02-26T11:28:09;3.30;99.90
15888;DHT22;56032;51.324;12.376;2023-02-26T11:31:22;3.10;99.90
15888;DHT22;56032;51.324;12.376;2023-02-26T11:33:53;3.00;99.90
15888;DHT22;56032;51.324;12.376;2023-02-26T11:36:27;2.90;99.90
15888;DHT22;56032;51.324;12.376;2023-02-26T11:38:59;3.20;99.90
15888;DHT22;56032;51.324;12.376;2023-02-26T11:41:29;3.10;99.90
15888;DHT22;56032;51.324;12.376;2023-02-26T11:43:59;3.10;99.90
15888;DHT22;56032;51.324;12.376;2023-02-26T11:46:33;3.10;99.90
15888;DHT22;56032;51.324;12.376;2023-02-26T11:49:07;3.20;99.90
15888;DHT22;56032;51.324;12.376;2023-02-26T11:51:40;3.20;99.90
15888;DHT22;56032;51.324;12.376;2023-02-26T11:54:19;3.10;99.90
15888;DHT22;56032;51.324;12.376;2023-02-26T11:56:48;3.10;99.90
15888;DHT22;56032;51.324;12.376;2023-02-26T11:59:18;3.20;99.90
15888;DHT22;56032;51.324;12.376;2023-02-26T12:01:50;2.70;99.90
15888;DHT22;56032;51.324;12.376;2023-02-26T12:04:22;3.10;99.90
15888;DHT22;56032;51.324;12.376;2023-02-26T12:06:56;3.10;99.90
15888;DHT22;56032;51.324;12.376;2023-02-26T12:09:26;3.20;99.90
15888;DHT22;56032;51.324;12.376;2023-02-26T12:12:02;3.30;99.90
15888;DHT22;56032;51.324;12.376;2023-02-26T12:14:39;3.40;99.90
15888;DHT22;56032;51.324;12.376;2023-02-26T12:17:15;3.40;99.90
15888;DHT22;56032;51.324;12.376;2023-02-26T12:19:51;3.10;99.90
15888;DHT22;56032;51.324;12.376;2023-02-26T12:22:28;3.00;99.90
15888;DHT22;56032;51.324;12.376;2023-02-26T12:25:18;3.10;99.90
15888;DHT22;56032;51.324;12.376;2023-02-26T12:30:39;3.30;99.90
15888;DHT22;56032;51.324;12.376;2023-02-26T12:33:17;3.50;99.90
15888;DHT22;56032;51.324;12.376;2023-02-26T12:36:00;3.50;99.90
15888;DHT22;56032;51.324;12.376;2023-02-26T12:38:36;3.30;99.90
15888;DHT22;56032;51.324;12.376;2023-02-26T12:43:59;2.80;99.90
15888;DHT22;56032;51.324;12.376;2023-02-26T12:46:41;2.80;99.90
15888;DHT22;56032;51.324;12.376;2023-02-26T12:54:48;2.80;99.90
15888;DHT22;56032;51.324;12.376;2023-02-26T12:57:26;3.00;99.90
15888;DHT22;56032;51.324;12.376;2023-02-26T13:00:09;3.20;99.90
15888;DHT22;56032;51.324;12.376;2023-02-26T13:05:35;3.80;99.90
15888;DHT22;56032;51.324;12.376;2023-02-26T13:08:11;3.60;99.90
15888;DHT22;56032;51.324;12.376;2023-02-26T13:10:54;3.10;99.90
15888;DHT22;56032;51.324;12.376;2023-02-26T13:16:23;3.00;99.90
15888;DHT22;56032;51.324;12.376;2023-02-26T13:18:57;3.20;99.90
15888;DHT22;56032;51.324;12.376;2023-02-26T13:21:29;3.20;99.90
15888;DHT22;56032;51.324;12.376;2023-02-26T13:24:01;3.20;99.90
15888;DHT22;56032;51.324;12.376;2023-02-26T13:26:33;3.30;99.90
15888;DHT22;56032;51.324;12.376;2023-02-26T13:29:08;3.50;99.90
15888;DHT22;56032;51.324;12.376;2023-02-26T13:31:55;3.60;99.90
15888;DHT22;56032;51.324;12.376;2023-02-26T13:34:45;3.70;99.90
15888;DHT22;56032;51.324;12.376;2023-02-26T13:37:29;3.90;99.90
15888;DHT22;56032;51.324;12.376;2023-02-26T13:40:21;4.10;99.90
15888;DHT22;56032;51.324;12.376;2023-02-26T13:46:11;4.20;99.90
15888;DHT22;56032;51.324;12.376;2023-02-26T13:49:07;4.10;99.90
15888;DHT22;56032;51.324;12.376;2023-02-26T13:51:51;3.70;99.90
15888;DHT22;56032;51.324;12.376;2023-02-26T13:55:00;3.40;99.90
15888;DHT22;56032;51.324;12.376;2023-02-26T14:01:25;3.40;99.90
15888;DHT22;56032;51.324;12.376;2023-02-26T14:04:24;3.50;99.90
15888;DHT22;56032;51.324;12.376;2023-02-26T14:07:04;3.60;99.90
15888;DHT22;56032;51.324;12.376;2023-02-26T14:10:12;3.70;99.90
15888;DHT22;56032;51.324;12.376;2023-02-26T14:13:00;3.50;99.90
15888;DHT22;56032;51.324;12.376;2023-02-26T14:15:40;3.50;99.90
15888;DHT22;56032;51.324;12.376;2023-02-26T14:18:24;3.40;99.90
15888;DHT22;56032;51.324;12.376;2023-02-26T14:24:23;3.40;99.90
15888;DHT22;56032;51.324;12.376;2023-02-26T14:27:36;3.40;99.90
15888;DHT22;56032;51.324;12.376;2023-02-26T14:30:27;3.50;99.90
15888;DHT22;56032;51.324;12.376;2023-02-26T14:33:14;3.60;99.90
15888;DHT22;56032;51.324;12.376;2023-02-26T14:36:14;3.60;99.90
15888;DHT22;56032;51.324;12.376;2023-02-26T14:38:56;3.50;99.90
15888;DHT22;56032;51.324;12.376;2023-02-26T14:42:02;3.40;99.90
15888;DHT22;56032;51.324;12.376;2023-02-26T14:44:37;3.30;99.90
15888;DHT22;56032;51.324;12.376;2023-02-26T14:47:27;3.40;99.90
15888;DHT22;56032;51.324;12.376;2023-02-26T14:50:09;3.30;99.90
15888;DHT22;56032;51.324;12.376;2023-02-26T14:53:02;3.20;99.90
15888;DHT22;56032;51.324;12.376;2023-02-26T14:55:49;3.10;99.90
15888;DHT22;56032;51.324;12.376;2023-02-26T14:58:40;3.10;99.90
15888;DHT22;56032;51.324;12.376;2023-02-26T15:01:18;3.10;99.90
15888;DHT22;56032;51.324;12.376;2023-02-26T15:03:59;3.00;99.90
15888;DHT22;56032;51.324;12.376;2023-02-26T15:09:53;3.10;99.90
15888;DHT22;56032;51.324;12.376;2023-02-26T15:12:45;3.10;99.90
15888;DHT22;56032;51.324;12.376;2023-02-26T15:15:42;3.00;99.90
15888;DHT22;56032;51.324;12.376;2023-02-26T15:18:31;3.00;99.90
15888;DHT22;56032;51.324;12.376;2023-02-26T15:21:14;2.90;99.90
15888;DHT22;56032;51.324;12.376;2023-02-26T15:24:10;2.70;99.90
15888;DHT22;56032;51.324;12.376;2023-02-26T15:27:10;2.80;99.90
15888;DHT22;56032;51.324;12.376;2023-02-26T15:29:48;2.80;99.90
15888;DHT22;56032;51.324;12.376;2023-02-26T15:32:35;2.90;99.90
15888;DHT22;56032;51.324;12.376;2023-02-26T15:35:13;2.80;99.90
15888;DHT22;56032;51.324;12.376;2023-02-26T15:37:48;2.70;99.90
15888;DHT22;56032;51.324;12.376;2023-02-26T15:40:20;2.80;99.90
15888;DHT22;56032;51.324;12.376;2023-02-26T15:45:51;2.80;99.90
15888;DHT22;56032;51.324;12.376;2023-02-26T15:48:33;2.90;99.90
15888;DHT22;56032;51.324;12.376;2023-02-26T15:51:07;2.90;99.90
15888;DHT22;56032;51.324;12.376;2023-02-26T15:53:48;2.90;99.90
15888;DHT22;56032;51.324;12.376;2023-02-26T15:56:23;3.00;99.90
15888;DHT22;56032;51.324;12.376;2023-02-26T15:59:03;3.00;99.90
15888;DHT22;56032;51.324;12.376;2023-02-26T16:04:48;2.90;99.90
15888;DHT22;56032;51.324;12.376;2023-02-26T16:07:20;2.90;99.90
15888;DHT22;56032;51.324;12.376;2023-02-26T16:10:07;2.90;99.90
15888;DHT22;56032;51.324;12.376;2023-02-26T16:13:19;2.90;99.90
15888;DHT22;56032;51.324;12.376;2023-02-26T16:15:59;2.80;99.90
15888;DHT22;56032;51.324;12.376;2023-02-26T16:18:46;2.80;99.90
15888;DHT22;56032;51.324;12.376;2023-02-26T16:21:26;2.70;99.90
15888;DHT22;56032;51.324;12.376;2023-02-26T16:24:13;2.70;99.90
15888;DHT22;56032;51.324;12.376;2023-02-26T16:27:06;2.70;99.90
15888;DHT22;56032;51.324;12.376;2023-02-26T16:29:46;2.70;99.90
15888;DHT22;56032;51.324;12.376;2023-02-26T16:32:20;2.60;99.90
15888;DHT22;56032;51.324;12.376;2023-02-26T16:34:53;2.60;99.90
15888;DHT22;56032;51.324;12.376;2023-02-26T16:40:35;2.50;99.90
15888;DHT22;56032;51.324;12.376;2023-02-26T16:46:31;2.40;99.90
15888;DHT22;56032;51.324;12.376;2023-02-26T16:49:23;2.40;99.90
15888;DHT22;56032;51.324;12.376;2023-02-26T16:52:09;2.40;99.90
15888;DHT22;56032;51.324;12.376;2023-02-26T17:01:12;2.30;99.90
15888;DHT22;56032;51.324;12.376;2023-02-26T17:04:25;2.20;99.90
15888;DHT22;56032;51.324;12.376;2023-02-26T17:07:16;2.20;99.90
15888;DHT22;56032;51.324;12.376;2023-02-26T17:10:21;2.10;99.90
15888;DHT22;56032;51.324;12.376;2023-02-26T17:13:15;2.10;99.90
15888;DHT22;56032;51.324;12.376;2023-02-26T17:19:37;2.00;99.90
15888;DHT22;56032;51.324;12.376;2023-02-26T17:22:25;2.00;99.90
15888;DHT22;56032;51.324;12.376;2023-02-26T17:25:34;2.00;99.90
15888;DHT22;56032;51.324;12.376;2023-02-26T17:28:11;2.00;99.90
15888;DHT22;56032;51.324;12.376;2023-02-26T17:31:05;2.00;99.90
15888;DHT22;56032;51.324;12.376;2023-02-26T17:33:54;1.90;99.90
15888;DHT22;56032;51.324;12.376;2023-02-26T17:42:54;1.80;99.90
15888;DHT22;56032;51.324;12.376;2023-02-26T17:45:51;1.80;99.90
15888;DHT22;56032;51.324;12.376;2023-02-26T17:48:51;1.70;99.90
15888;DHT22;56032;51.324;12.376;2023-02-26T17:51:52;1.70;99.90
15888;DHT22;56032;51.324;12.376;2023-02-26T17:54:54;1.60;99.90
15888;DHT22;56032;51.324;12.376;2023-02-26T18:04:53;1.60;99.90
15888;DHT22;56032;51.324;12.376;2023-02-26T18:08:02;1.60;99.90
15888;DHT22;56032;51.324;12.376;2023-02-26T18:11:00;1.60;99.90
15888;DHT22;56032;51.324;12.376;2023-02-26T18:13:59;1.60;99.90
15888;DHT22;56032;51.324;12.376;2023-02-26T18:16:54;1.60;99.90
15888;DHT22;56032;51.324;12.376;2023-02-26T18:29:30;1.50;99.90
15888;DHT22;56032;51.324;12.376;2023-02-26T18:32:31;1.50;99.90
15888;DHT22;56032;51.324;12.376;2023-02-26T18:35:28;1.50;99.90
15888;DHT22;56032;51.324;12.376;2023-02-26T18:38:26;1.50;99.90
15888;DHT22;56032;51.324;12.376;2023-02-26T18:41:27;1.40;99.90
15888;DHT22;56032;51.324;12.376;2023-02-26T19:31:01;1.00;99.90
15888;DHT22;56032;51.324;12.376;2023-02-26T19:33:33;1.00;99.90
15888;DHT22;56032;51.324;12.376;2023-02-26T19:36:04;1.00;99.90
15888;DHT22;56032;51.324;12.376;2023-02-26T19:38:56;0.90;99.90
15888;DHT22;56032;51.324;12.376;2023-02-26T19:42:07;0.90;99.90
15888;DHT22;56032;51.324;12.376;2023-02-26T20:13:38;0.80;99.90
15888;DHT22;56032;51.324;12.376;2023-02-26T20:16:37;0.50;99.90
15888;DHT22;56032;51.324;12.376;2023-02-26T20:19:37;0.70;99.90
15888;DHT22;56032;51.324;12.376;2023-02-26T20:22:24;0.70;99.90
15888;DHT22;56032;51.324;12.376;2023-02-26T20:25:20;0.70;99.90
15888;DHT22;56032;51.324;12.376;2023-02-26T20:28:18;0.80;99.90
15888;DHT22;56032;51.324;12.376;2023-02-26T21:22:50;0.60;99.90
15888;DHT22;56032;51.324;12.376;2023-02-26T21:25:25;0.60;99.90
15888;DHT22;56032;51.324;12.376;2023-02-26T21:28:00;0.60;99.90
15888;DHT22;56032;51.324;12.376;2023-02-26T21:30:32;0.60;99.90
15888;DHT22;56032;51.324;12.376;2023-02-26T21:33:04;0.60;99.90
15888;DHT22;56032;51.324;12.376;2023-02-26T21:35:39;0.60;99.90
15888;DHT22;56032;51.324;12.376;2023-02-26T21:38:16;0.60;99.90
15888;DHT22;56032;51.324;12.376;2023-02-26T21:40:56;0.60;99.90
15888;DHT22;56032;51.324;12.376;2023-02-26T21:43:25;0.50;99.90